Cygnus — 9HA2105 — position and weather

sailwx.info

Track history (hours):
 
Tides and Currents Weather Stations Pressure Air Temp Water Temp Dewpoint Dewpoint Depression Visibility Wind Speed Wind Dir Waves Ship Positions

Cygnus

Last reported at 2015-Jan-08 03:45 UTC. Time now 2015-Jan-31 21:12 UTC.
Position S 35°33' W 053°23'.
Warning: this ship's position is 23 days out of date.

Length 177 m; draft 10 m.

Type: Cargo ship. MMSI: 249963000.

Date/timePositionNaut miles runAvg speedWind from/ knotsBaromVisibWave heightAir tempDewpointWater temp
2015-Jan-08 03:45S 35°33' W 053°23'1613.7
2015-Jan-08 02:33S 35°28' W 053°42'2612.9
2015-Jan-08 00:33S 35°21' W 054°13'64 8.9
2015-Jan-07 17:22S 35°11' W 055°30'0 0.1
2015-Jan-07 16:29S 35°11' W 055°30'8 7.7
2015-Jan-07 15:25S 35°07' W 055°39'109 7.3
2015-Jan-07 00:25S 34°44' W 057°48'0 0.5
2015-Jan-06 23:30S 34°44' W 057°49'0 0.1
2015-Jan-06 21:30S 34°44' W 057°49'0 0.1
2015-Jan-06 19:18S 34°44' W 057°49'0 0.1
2015-Jan-06 18:33S 34°44' W 057°49'0 0.1
2015-Jan-06 17:21S 34°44' W 057°49'0 0.0
2015-Jan-06 16:27S 34°44' W 057°49'3 2.8
2015-Jan-06 15:32S 34°43' W 057°51'1111.3
2015-Jan-06 14:32S 34°39' W 058°04'49 1.8
2015-Jan-05 11:13S 33°53' W 058°25'  
2014-Dec-31 05:27S 34°25' W 057°58'1311.2
2014-Dec-31 04:17S 34°38' W 057°58'2212.6
2014-Dec-31 02:31S 34°46' W 057°33'1414.3
2014-Dec-31 01:33S 34°54' W 057°19'2013.9
2014-Dec-31 00:05S 35°09' W 057°01'  
Track history (hours):
 
Tides and Currents Weather Stations Pressure Air Temp Water Temp Dewpoint Dewpoint Depression Visibility Wind Speed Wind Dir Waves Ship Positions

Cygnus

Last reported at 2015-Jan-08 03:45 UTC. Time now 2015-Jan-31 21:12 UTC.
Position S 35°33' W 053°23'.
Warning: this ship's position is 23 days out of date.

Length 177 m; draft 10 m.

Type: Cargo ship. MMSI: 249963000.

Date/timePositionNaut miles runAvg speedWind from/ knotsBaromVisibWave heightAir tempDewpointWater temp
2015-Jan-08 03:45S 35°33' W 053°23'1613.7
2015-Jan-08 02:33S 35°28' W 053°42'2612.9
2015-Jan-08 00:33S 35°21' W 054°13'64 8.9
2015-Jan-07 17:22S 35°11' W 055°30'0 0.1
2015-Jan-07 16:29S 35°11' W 055°30'8 7.7
2015-Jan-07 15:25S 35°07' W 055°39'109 7.3
2015-Jan-07 00:25S 34°44' W 057°48'0 0.5
2015-Jan-06 23:30S 34°44' W 057°49'0 0.1
2015-Jan-06 21:30S 34°44' W 057°49'0 0.1
2015-Jan-06 19:18S 34°44' W 057°49'0 0.1
2015-Jan-06 18:33S 34°44' W 057°49'0 0.1
2015-Jan-06 17:21S 34°44' W 057°49'0 0.0
2015-Jan-06 16:27S 34°44' W 057°49'3 2.8
2015-Jan-06 15:32S 34°43' W 057°51'1111.3
2015-Jan-06 14:32S 34°39' W 058°04'49 1.8
2015-Jan-05 11:13S 33°53' W 058°25'  
2014-Dec-31 05:27S 34°25' W 057°58'1311.2
2014-Dec-31 04:17S 34°38' W 057°58'2212.6
2014-Dec-31 02:31S 34°46' W 057°33'1414.3
2014-Dec-31 01:33S 34°54' W 057°19'2013.9
2014-Dec-31 00:05S 35°09' W 057°01'  

Dump ship's entire track history